sensor_id;sensor_type;location;lat;lon;timestamp;P1;durP1;ratioP1;P2;durP2;ratioP2
77384;SDS011;66443;49.122;8.346;2023-12-29T00:01:12;6.70;;;6.10;;
77384;SDS011;66443;49.122;8.346;2023-12-29T00:03:37;7.07;;;6.37;;
77384;SDS011;66443;49.122;8.346;2023-12-29T00:06:02;6.37;;;5.77;;
77384;SDS011;66443;49.122;8.346;2023-12-29T00:08:27;6.90;;;6.30;;
77384;SDS011;66443;49.122;8.346;2023-12-29T00:10:53;6.37;;;5.77;;
77384;SDS011;66443;49.122;8.346;2023-12-29T00:13:18;6.83;;;6.23;;
77384;SDS011;66443;49.122;8.346;2023-12-29T00:15:47;7.63;;;6.83;;
77384;SDS011;66443;49.122;8.346;2023-12-29T00:18:15;7.37;;;6.67;;
77384;SDS011;66443;49.122;8.346;2023-12-29T00:20:40;7.73;;;6.90;;
77384;SDS011;66443;49.122;8.346;2023-12-29T00:23:05;7.13;;;6.43;;
77384;SDS011;66443;49.122;8.346;2023-12-29T00:25:31;7.00;;;6.40;;
77384;SDS011;66443;49.122;8.346;2023-12-29T00:27:56;7.27;;;6.57;;
77384;SDS011;66443;49.122;8.346;2023-12-29T00:30:22;6.83;;;6.13;;
77384;SDS011;66443;49.122;8.346;2023-12-29T00:32:47;7.83;;;6.83;;
77384;SDS011;66443;49.122;8.346;2023-12-29T00:35:12;7.07;;;6.37;;
77384;SDS011;66443;49.122;8.346;2023-12-29T00:37:38;7.13;;;6.40;;
77384;SDS011;66443;49.122;8.346;2023-12-29T00:40:03;7.13;;;6.43;;
77384;SDS011;66443;49.122;8.346;2023-12-29T00:42:30;7.30;;;6.67;;
77384;SDS011;66443;49.122;8.346;2023-12-29T00:44:55;7.97;;;7.10;;
77384;SDS011;66443;49.122;8.346;2023-12-29T00:47:20;7.73;;;7.03;;
77384;SDS011;66443;49.122;8.346;2023-12-29T00:49:48;8.93;;;6.50;;
77384;SDS011;66443;49.122;8.346;2023-12-29T00:52:13;7.50;;;6.47;;
77384;SDS011;66443;49.122;8.346;2023-12-29T00:54:39;7.30;;;6.60;;
77384;SDS011;66443;49.122;8.346;2023-12-29T00:57:04;7.93;;;6.83;;
77384;SDS011;66443;49.122;8.346;2023-12-29T00:59:30;7.47;;;6.73;;
77384;SDS011;66443;49.122;8.346;2023-12-29T01:01:55;6.90;;;6.30;;
77384;SDS011;66443;49.122;8.346;2023-12-29T01:04:20;6.97;;;6.30;;
77384;SDS011;66443;49.122;8.346;2023-12-29T01:06:45;7.90;;;6.20;;
77384;SDS011;66443;49.122;8.346;2023-12-29T01:09:10;7.57;;;6.27;;
77384;SDS011;66443;49.122;8.346;2023-12-29T01:11:36;6.10;;;5.60;;
77384;SDS011;66443;49.122;8.346;2023-12-29T01:14:02;6.10;;;5.50;;
77384;SDS011;66443;49.122;8.346;2023-12-29T01:16:27;6.33;;;5.70;;
77384;SDS011;66443;49.122;8.346;2023-12-29T01:18:52;6.30;;;5.70;;
77384;SDS011;66443;49.122;8.346;2023-12-29T01:21:17;6.17;;;5.57;;
77384;SDS011;66443;49.122;8.346;2023-12-29T01:23:42;5.87;;;5.33;;
77384;SDS011;66443;49.122;8.346;2023-12-29T01:26:08;5.97;;;5.03;;
77384;SDS011;66443;49.122;8.346;2023-12-29T01:28:33;5.77;;;5.27;;
77384;SDS011;66443;49.122;8.346;2023-12-29T01:30:59;6.17;;;5.57;;
77384;SDS011;66443;49.122;8.346;2023-12-29T01:33:24;6.40;;;4.93;;
77384;SDS011;66443;49.122;8.346;2023-12-29T01:35:49;5.93;;;5.43;;
77384;SDS011;66443;49.122;8.346;2023-12-29T01:38:14;6.33;;;5.33;;
77384;SDS011;66443;49.122;8.346;2023-12-29T01:40:43;5.40;;;4.90;;
77384;SDS011;66443;49.122;8.346;2023-12-29T01:43:08;6.97;;;5.50;;
77384;SDS011;66443;49.122;8.346;2023-12-29T01:45:34;5.47;;;4.97;;
77384;SDS011;66443;49.122;8.346;2023-12-29T01:47:59;5.37;;;4.97;;
77384;SDS011;66443;49.122;8.346;2023-12-29T01:50:24;5.57;;;4.83;;
77384;SDS011;66443;49.122;8.346;2023-12-29T01:52:50;5.40;;;4.90;;
77384;SDS011;66443;49.122;8.346;2023-12-29T01:55:17;5.60;;;4.97;;
77384;SDS011;66443;49.122;8.346;2023-12-29T01:57:43;4.97;;;4.33;;
77384;SDS011;66443;49.122;8.346;2023-12-29T02:00:08;4.90;;;4.40;;
77384;SDS011;66443;49.122;8.346;2023-12-29T02:02:34;4.83;;;4.43;;
77384;SDS011;66443;49.122;8.346;2023-12-29T02:04:59;4.37;;;4.07;;
77384;SDS011;66443;49.122;8.346;2023-12-29T02:07:26;5.10;;;4.70;;
77384;SDS011;66443;49.122;8.346;2023-12-29T02:09:54;7.97;;;4.77;;
77384;SDS011;66443;49.122;8.346;2023-12-29T02:12:19;4.87;;;4.37;;
77384;SDS011;66443;49.122;8.346;2023-12-29T02:14:45;5.20;;;4.70;;
77384;SDS011;66443;49.122;8.346;2023-12-29T02:17:10;4.73;;;4.33;;
77384;SDS011;66443;49.122;8.346;2023-12-29T02:19:41;5.20;;;4.70;;
77384;SDS011;66443;49.122;8.346;2023-12-29T02:22:07;4.97;;;4.47;;
77384;SDS011;66443;49.122;8.346;2023-12-29T02:24:36;5.50;;;5.00;;
77384;SDS011;66443;49.122;8.346;2023-12-29T02:29:50;6.63;;;5.50;;
77384;SDS011;66443;49.122;8.346;2023-12-29T02:32:20;6.23;;;5.30;;
77384;SDS011;66443;49.122;8.346;2023-12-29T02:34:45;6.50;;;5.90;;
77384;SDS011;66443;49.122;8.346;2023-12-29T02:37:12;6.13;;;5.63;;
77384;SDS011;66443;49.122;8.346;2023-12-29T02:39:38;7.03;;;6.17;;
77384;SDS011;66443;49.122;8.346;2023-12-29T02:42:03;7.83;;;6.33;;
77384;SDS011;66443;49.122;8.346;2023-12-29T02:44:29;6.70;;;6.10;;
77384;SDS011;66443;49.122;8.346;2023-12-29T02:46:54;8.03;;;7.23;;
77384;SDS011;66443;49.122;8.346;2023-12-29T02:49:19;8.50;;;6.67;;
77384;SDS011;66443;49.122;8.346;2023-12-29T02:51:44;7.63;;;6.70;;
77384;SDS011;66443;49.122;8.346;2023-12-29T02:54:11;7.30;;;6.70;;
77384;SDS011;66443;49.122;8.346;2023-12-29T02:56:36;6.67;;;6.07;;
77384;SDS011;66443;49.122;8.346;2023-12-29T02:59:01;6.50;;;5.87;;
77384;SDS011;66443;49.122;8.346;2023-12-29T03:01:26;7.70;;;6.90;;
77384;SDS011;66443;49.122;8.346;2023-12-29T03:03:53;7.20;;;6.20;;
77384;SDS011;66443;49.122;8.346;2023-12-29T03:06:19;8.43;;;6.00;;
77384;SDS011;66443;49.122;8.346;2023-12-29T03:08:44;5.67;;;5.17;;
77384;SDS011;66443;49.122;8.346;2023-12-29T03:11:09;6.93;;;6.23;;
77384;SDS011;66443;49.122;8.346;2023-12-29T03:13:34;6.30;;;5.73;;
77384;SDS011;66443;49.122;8.346;2023-12-29T03:16:00;6.23;;;5.63;;
77384;SDS011;66443;49.122;8.346;2023-12-29T03:18:25;6.80;;;6.10;;
77384;SDS011;66443;49.122;8.346;2023-12-29T03:20:50;7.00;;;6.00;;
77384;SDS011;66443;49.122;8.346;2023-12-29T03:23:15;7.10;;;6.50;;
77384;SDS011;66443;49.122;8.346;2023-12-29T03:25:40;6.07;;;5.43;;
77384;SDS011;66443;49.122;8.346;2023-12-29T03:28:05;6.77;;;5.33;;
77384;SDS011;66443;49.122;8.346;2023-12-29T03:30:31;6.17;;;5.30;;
77384;SDS011;66443;49.122;8.346;2023-12-29T03:32:56;5.77;;;5.27;;
77384;SDS011;66443;49.122;8.346;2023-12-29T03:35:21;5.80;;;5.30;;
77384;SDS011;66443;49.122;8.346;2023-12-29T03:37:47;6.50;;;5.30;;
77384;SDS011;66443;49.122;8.346;2023-12-29T03:40:12;7.33;;;4.97;;
77384;SDS011;66443;49.122;8.346;2023-12-29T03:42:37;6.07;;;5.13;;
77384;SDS011;66443;49.122;8.346;2023-12-29T03:45:03;5.90;;;5.40;;
77384;SDS011;66443;49.122;8.346;2023-12-29T03:47:28;5.90;;;5.30;;
77384;SDS011;66443;49.122;8.346;2023-12-29T03:49:55;5.37;;;4.90;;
77384;SDS011;66443;49.122;8.346;2023-12-29T03:52:20;5.97;;;4.47;;
77384;SDS011;66443;49.122;8.346;2023-12-29T03:54:45;5.20;;;4.70;;
77384;SDS011;66443;49.122;8.346;2023-12-29T03:57:10;5.20;;;4.77;;
77384;SDS011;66443;49.122;8.346;2023-12-29T03:59:37;4.40;;;4.10;;
77384;SDS011;66443;49.122;8.346;2023-12-29T04:02:02;4.60;;;4.20;;
77384;SDS011;66443;49.122;8.346;2023-12-29T04:04:27;5.10;;;4.13;;
77384;SDS011;66443;49.122;8.346;2023-12-29T04:06:53;4.97;;;4.57;;
77384;SDS011;66443;49.122;8.346;2023-12-29T04:09:18;4.23;;;3.83;;
77384;SDS011;66443;49.122;8.346;2023-12-29T04:11:43;4.07;;;3.77;;
77384;SDS011;66443;49.122;8.346;2023-12-29T04:14:08;3.90;;;3.60;;
77384;SDS011;66443;49.122;8.346;2023-12-29T04:16:37;6.50;;;3.77;;
77384;SDS011;66443;49.122;8.346;2023-12-29T04:19:02;4.17;;;3.80;;
77384;SDS011;66443;49.122;8.346;2023-12-29T04:21:28;3.90;;;3.60;;
77384;SDS011;66443;49.122;8.346;2023-12-29T04:23:53;4.67;;;4.13;;
77384;SDS011;66443;49.122;8.346;2023-12-29T04:26:18;4.33;;;4.03;;
77384;SDS011;66443;49.122;8.346;2023-12-29T04:28:43;5.93;;;4.93;;
77384;SDS011;66443;49.122;8.346;2023-12-29T04:31:08;5.00;;;3.93;;
77384;SDS011;66443;49.122;8.346;2023-12-29T04:33:33;4.30;;;3.90;;
77384;SDS011;66443;49.122;8.346;2023-12-29T04:35:59;4.60;;;4.27;;
77384;SDS011;66443;49.122;8.346;2023-12-29T04:38:24;6.67;;;4.80;;
77384;SDS011;66443;49.122;8.346;2023-12-29T04:40:49;4.93;;;4.53;;
77384;SDS011;66443;49.122;8.346;2023-12-29T04:43:14;5.00;;;4.60;;
77384;SDS011;66443;49.122;8.346;2023-12-29T04:45:40;6.27;;;5.13;;
77384;SDS011;66443;49.122;8.346;2023-12-29T04:48:05;5.13;;;4.73;;
77384;SDS011;66443;49.122;8.346;2023-12-29T04:50:30;5.93;;;5.33;;
77384;SDS011;66443;49.122;8.346;2023-12-29T04:52:55;6.00;;;5.43;;
77384;SDS011;66443;49.122;8.346;2023-12-29T04:55:20;6.20;;;5.70;;
77384;SDS011;66443;49.122;8.346;2023-12-29T04:57:46;5.53;;;5.13;;
77384;SDS011;66443;49.122;8.346;2023-12-29T05:00:11;7.17;;;6.30;;
77384;SDS011;66443;49.122;8.346;2023-12-29T05:02:36;5.97;;;5.47;;
77384;SDS011;66443;49.122;8.346;2023-12-29T05:05:01;6.60;;;6.00;;
77384;SDS011;66443;49.122;8.346;2023-12-29T05:07:27;6.40;;;5.80;;
77384;SDS011;66443;49.122;8.346;2023-12-29T05:09:52;8.50;;;7.70;;
77384;SDS011;66443;49.122;8.346;2023-12-29T05:12:17;6.50;;;5.87;;
77384;SDS011;66443;49.122;8.346;2023-12-29T05:14:43;7.57;;;5.93;;
77384;SDS011;66443;49.122;8.346;2023-12-29T05:17:08;6.07;;;5.57;;
77384;SDS011;66443;49.122;8.346;2023-12-29T05:19:33;6.50;;;5.83;;
77384;SDS011;66443;49.122;8.346;2023-12-29T05:21:58;6.93;;;6.33;;
77384;SDS011;66443;49.122;8.346;2023-12-29T05:24:23;6.87;;;6.20;;
77384;SDS011;66443;49.122;8.346;2023-12-29T05:26:49;8.13;;;7.10;;
77384;SDS011;66443;49.122;8.346;2023-12-29T05:29:14;7.03;;;6.33;;
77384;SDS011;66443;49.122;8.346;2023-12-29T05:31:39;6.93;;;6.23;;
77384;SDS011;66443;49.122;8.346;2023-12-29T05:34:04;6.93;;;6.07;;
77384;SDS011;66443;49.122;8.346;2023-12-29T05:36:29;7.37;;;5.57;;
77384;SDS011;66443;49.122;8.346;2023-12-29T05:38:55;6.57;;;5.87;;
77384;SDS011;66443;49.122;8.346;2023-12-29T05:41:20;6.13;;;5.53;;
77384;SDS011;66443;49.122;8.346;2023-12-29T05:43:45;7.17;;;6.47;;
77384;SDS011;66443;49.122;8.346;2023-12-29T05:46:11;9.17;;;6.67;;
77384;SDS011;66443;49.122;8.346;2023-12-29T05:48:36;8.50;;;6.13;;
77384;SDS011;66443;49.122;8.346;2023-12-29T05:51:12;6.20;;;5.60;;
77384;SDS011;66443;49.122;8.346;2023-12-29T05:53:39;8.40;;;6.37;;
77384;SDS011;66443;49.122;8.346;2023-12-29T05:56:04;8.00;;;6.50;;
77384;SDS011;66443;49.122;8.346;2023-12-29T05:58:29;5.63;;;5.13;;
77384;SDS011;66443;49.122;8.346;2023-12-29T06:00:55;6.73;;;6.03;;
77384;SDS011;66443;49.122;8.346;2023-12-29T06:03:20;7.17;;;5.93;;
77384;SDS011;66443;49.122;8.346;2023-12-29T06:05:45;6.87;;;6.23;;
77384;SDS011;66443;49.122;8.346;2023-12-29T06:08:11;7.23;;;6.57;;
77384;SDS011;66443;49.122;8.346;2023-12-29T06:10:36;6.90;;;6.00;;
77384;SDS011;66443;49.122;8.346;2023-12-29T06:13:01;9.07;;;5.80;;
77384;SDS011;66443;49.122;8.346;2023-12-29T06:15:27;7.17;;;6.47;;
77384;SDS011;66443;49.122;8.346;2023-12-29T06:17:53;6.47;;;5.93;;
77384;SDS011;66443;49.122;8.346;2023-12-29T06:20:18;7.22;;;6.45;;
77384;SDS011;66443;49.122;8.346;2023-12-29T06:22:43;7.23;;;6.53;;
77384;SDS011;66443;49.122;8.346;2023-12-29T06:25:12;6.27;;;5.67;;
77384;SDS011;66443;49.122;8.346;2023-12-29T06:27:38;7.40;;;6.70;;
77384;SDS011;66443;49.122;8.346;2023-12-29T06:30:06;6.80;;;6.10;;
77384;SDS011;66443;49.122;8.346;2023-12-29T06:32:31;7.33;;;6.63;;
77384;SDS011;66443;49.122;8.346;2023-12-29T06:34:57;7.47;;;6.27;;
77384;SDS011;66443;49.122;8.346;2023-12-29T06:37:22;7.17;;;6.47;;
77384;SDS011;66443;49.122;8.346;2023-12-29T06:39:47;7.47;;;6.67;;
77384;SDS011;66443;49.122;8.346;2023-12-29T06:42:12;7.33;;;6.20;;
77384;SDS011;66443;49.122;8.346;2023-12-29T06:44:37;6.63;;;5.67;;
77384;SDS011;66443;49.122;8.346;2023-12-29T06:47:03;6.50;;;5.90;;
77384;SDS011;66443;49.122;8.346;2023-12-29T06:49:30;8.27;;;6.33;;
77384;SDS011;66443;49.122;8.346;2023-12-29T06:51:55;6.60;;;6.00;;
77384;SDS011;66443;49.122;8.346;2023-12-29T06:54:21;6.53;;;5.93;;
77384;SDS011;66443;49.122;8.346;2023-12-29T06:56:46;8.20;;;6.70;;
77384;SDS011;66443;49.122;8.346;2023-12-29T06:59:11;9.33;;;7.30;;
77384;SDS011;66443;49.122;8.346;2023-12-29T07:01:38;7.60;;;6.70;;
77384;SDS011;66443;49.122;8.346;2023-12-29T07:04:04;8.47;;;7.57;;
77384;SDS011;66443;49.122;8.346;2023-12-29T07:06:29;7.03;;;6.33;;
77384;SDS011;66443;49.122;8.346;2023-12-29T07:08:55;7.30;;;6.60;;
77384;SDS011;66443;49.122;8.346;2023-12-29T07:11:20;11.23;;;7.37;;
77384;SDS011;66443;49.122;8.346;2023-12-29T07:13:45;7.53;;;6.80;;
77384;SDS011;66443;49.122;8.346;2023-12-29T07:16:11;7.40;;;6.70;;
77384;SDS011;66443;49.122;8.346;2023-12-29T07:18:36;7.80;;;7.03;;
77384;SDS011;66443;49.122;8.346;2023-12-29T07:21:01;8.77;;;7.67;;
77384;SDS011;66443;49.122;8.346;2023-12-29T07:23:26;13.00;;;7.63;;
77384;SDS011;66443;49.122;8.346;2023-12-29T07:25:51;7.50;;;6.60;;
77384;SDS011;66443;49.122;8.346;2023-12-29T07:28:17;7.63;;;6.83;;
77384;SDS011;66443;49.122;8.346;2023-12-29T07:30:42;7.90;;;7.10;;
77384;SDS011;66443;49.122;8.346;2023-12-29T07:33:07;7.40;;;6.40;;
77384;SDS011;66443;49.122;8.346;2023-12-29T07:35:32;7.40;;;6.70;;
77384;SDS011;66443;49.122;8.346;2023-12-29T07:37:57;7.30;;;6.60;;
77384;SDS011;66443;49.122;8.346;2023-12-29T07:40:22;7.40;;;6.70;;
77384;SDS011;66443;49.122;8.346;2023-12-29T07:42:48;7.43;;;6.73;;
77384;SDS011;66443;49.122;8.346;2023-12-29T07:45:15;7.37;;;6.67;;
77384;SDS011;66443;49.122;8.346;2023-12-29T07:47:40;7.47;;;6.77;;
77384;SDS011;66443;49.122;8.346;2023-12-29T07:50:05;7.20;;;6.13;;
77384;SDS011;66443;49.122;8.346;2023-12-29T07:52:31;7.07;;;6.00;;
77384;SDS011;66443;49.122;8.346;2023-12-29T07:54:56;7.97;;;6.10;;
77384;SDS011;66443;49.122;8.346;2023-12-29T07:57:21;7.33;;;6.63;;
77384;SDS011;66443;49.122;8.346;2023-12-29T07:59:46;8.40;;;6.63;;
77384;SDS011;66443;49.122;8.346;2023-12-29T08:02:11;7.10;;;6.40;;
77384;SDS011;66443;49.122;8.346;2023-12-29T08:04:37;8.60;;;7.80;;
77384;SDS011;66443;49.122;8.346;2023-12-29T08:07:03;9.33;;;8.23;;
77384;SDS011;66443;49.122;8.346;2023-12-29T08:09:28;8.93;;;7.73;;
77384;SDS011;66443;49.122;8.346;2023-12-29T08:11:53;8.23;;;7.43;;
77384;SDS011;66443;49.122;8.346;2023-12-29T08:14:18;9.83;;;8.20;;
77384;SDS011;66443;49.122;8.346;2023-12-29T08:16:44;13.77;;;8.03;;
77384;SDS011;66443;49.122;8.346;2023-12-29T08:19:09;9.83;;;8.37;;
77384;SDS011;66443;49.122;8.346;2023-12-29T08:21:35;9.10;;;8.30;;
77384;SDS011;66443;49.122;8.346;2023-12-29T08:24:00;9.83;;;8.93;;
77384;SDS011;66443;49.122;8.346;2023-12-29T08:26:26;9.00;;;8.10;;
77384;SDS011;66443;49.122;8.346;2023-12-29T08:28:51;10.70;;;6.87;;
77384;SDS011;66443;49.122;8.346;2023-12-29T08:31:18;7.20;;;6.60;;
77384;SDS011;66443;49.122;8.346;2023-12-29T08:33:43;8.10;;;7.30;;
77384;SDS011;66443;49.122;8.346;2023-12-29T08:36:08;6.47;;;5.87;;
77384;SDS011;66443;49.122;8.346;2023-12-29T08:38:33;9.33;;;6.53;;
77384;SDS011;66443;49.122;8.346;2023-12-29T08:40:59;8.40;;;6.27;;
77384;SDS011;66443;49.122;8.346;2023-12-29T08:43:24;7.00;;;6.30;;
77384;SDS011;66443;49.122;8.346;2023-12-29T08:45:49;5.97;;;5.47;;
77384;SDS011;66443;49.122;8.346;2023-12-29T08:48:15;5.73;;;5.23;;
77384;SDS011;66443;49.122;8.346;2023-12-29T08:50:40;6.30;;;5.80;;
77384;SDS011;66443;49.122;8.346;2023-12-29T08:53:06;6.00;;;5.43;;
77384;SDS011;66443;49.122;8.346;2023-12-29T08:55:31;6.10;;;5.03;;
77384;SDS011;66443;49.122;8.346;2023-12-29T08:57:56;5.73;;;5.23;;
77384;SDS011;66443;49.122;8.346;2023-12-29T09:00:22;4.83;;;4.33;;
77384;SDS011;66443;49.122;8.346;2023-12-29T09:02:47;5.17;;;4.40;;
77384;SDS011;66443;49.122;8.346;2023-12-29T09:05:12;4.80;;;4.17;;
77384;SDS011;66443;49.122;8.346;2023-12-29T09:07:37;4.20;;;3.80;;
77384;SDS011;66443;49.122;8.346;2023-12-29T09:10:03;4.43;;;4.13;;
77384;SDS011;66443;49.122;8.346;2023-12-29T09:12:32;6.77;;;4.50;;
77384;SDS011;66443;49.122;8.346;2023-12-29T09:14:57;4.63;;;4.00;;
77384;SDS011;66443;49.122;8.346;2023-12-29T09:17:22;4.87;;;4.47;;
77384;SDS011;66443;49.122;8.346;2023-12-29T09:19:47;5.33;;;4.83;;
77384;SDS011;66443;49.122;8.346;2023-12-29T09:22:13;4.27;;;3.87;;
77384;SDS011;66443;49.122;8.346;2023-12-29T09:24:38;5.03;;;4.63;;
77384;SDS011;66443;49.122;8.346;2023-12-29T09:27:04;4.57;;;4.17;;
77384;SDS011;66443;49.122;8.346;2023-12-29T09:29:29;5.73;;;5.23;;
77384;SDS011;66443;49.122;8.346;2023-12-29T09:31:54;4.97;;;4.50;;
77384;SDS011;66443;49.122;8.346;2023-12-29T09:34:19;4.80;;;4.40;;
77384;SDS011;66443;49.122;8.346;2023-12-29T09:36:45;4.93;;;4.47;;
77384;SDS011;66443;49.122;8.346;2023-12-29T09:39:10;4.03;;;3.73;;
77384;SDS011;66443;49.122;8.346;2023-12-29T09:41:35;4.23;;;3.83;;
77384;SDS011;66443;49.122;8.346;2023-12-29T09:44:04;5.77;;;4.47;;
77384;SDS011;66443;49.122;8.346;2023-12-29T09:46:32;3.70;;;3.40;;
77384;SDS011;66443;49.122;8.346;2023-12-29T09:48:58;3.27;;;3.07;;
77384;SDS011;66443;49.122;8.346;2023-12-29T09:51:27;3.47;;;3.13;;
77384;SDS011;66443;49.122;8.346;2023-12-29T09:53:53;4.53;;;4.13;;
77384;SDS011;66443;49.122;8.346;2023-12-29T09:56:19;3.83;;;3.43;;
77384;SDS011;66443;49.122;8.346;2023-12-29T09:58:45;4.10;;;3.80;;
77384;SDS011;66443;49.122;8.346;2023-12-29T10:01:11;3.73;;;3.43;;
77384;SDS011;66443;49.122;8.346;2023-12-29T10:03:36;3.57;;;3.13;;
77384;SDS011;66443;49.122;8.346;2023-12-29T10:06:03;3.27;;;2.97;;
77384;SDS011;66443;49.122;8.346;2023-12-29T10:08:32;3.20;;;3.00;;
77384;SDS011;66443;49.122;8.346;2023-12-29T10:10:58;3.37;;;2.63;;
77384;SDS011;66443;49.122;8.346;2023-12-29T10:13:25;2.83;;;2.63;;
77384;SDS011;66443;49.122;8.346;2023-12-29T10:15:58;3.07;;;2.77;;
77384;SDS011;66443;49.122;8.346;2023-12-29T10:20:59;6.47;;;2.75;;
77384;SDS011;66443;49.122;8.346;2023-12-29T10:23:35;2.77;;;2.43;;
77384;SDS011;66443;49.122;8.346;2023-12-29T10:26:01;2.50;;;2.30;;
77384;SDS011;66443;49.122;8.346;2023-12-29T10:28:27;2.50;;;2.30;;
77384;SDS011;66443;49.122;8.346;2023-12-29T10:30:52;1.93;;;1.83;;
77384;SDS011;66443;49.122;8.346;2023-12-29T10:33:20;3.00;;;2.43;;
77384;SDS011;66443;49.122;8.346;2023-12-29T10:35:59;2.43;;;2.23;;
77384;SDS011;66443;49.122;8.346;2023-12-29T10:38:27;2.00;;;1.90;;
77384;SDS011;66443;49.122;8.346;2023-12-29T10:40:52;2.13;;;1.93;;
77384;SDS011;66443;49.122;8.346;2023-12-29T10:43:24;1.73;;;1.63;;
77384;SDS011;66443;49.122;8.346;2023-12-29T10:45:49;1.57;;;1.47;;
77384;SDS011;66443;49.122;8.346;2023-12-29T10:48:21;5.43;;;1.60;;
77384;SDS011;66443;49.122;8.346;2023-12-29T10:50:46;1.43;;;1.33;;
77384;SDS011;66443;49.122;8.346;2023-12-29T10:53:12;1.40;;;1.30;;
77384;SDS011;66443;49.122;8.346;2023-12-29T10:55:37;2.17;;;1.83;;
77384;SDS011;66443;49.122;8.346;2023-12-29T10:58:03;1.50;;;1.40;;
77384;SDS011;66443;49.122;8.346;2023-12-29T11:00:31;1.40;;;1.30;;
77384;SDS011;66443;49.122;8.346;2023-12-29T11:02:57;1.30;;;1.20;;
77384;SDS011;66443;49.122;8.346;2023-12-29T11:05:24;1.23;;;1.23;;
77384;SDS011;66443;49.122;8.346;2023-12-29T11:07:50;1.50;;;1.40;;
77384;SDS011;66443;49.122;8.346;2023-12-29T11:10:18;1.57;;;1.30;;
77384;SDS011;66443;49.122;8.346;2023-12-29T11:12:44;1.53;;;1.43;;
77384;SDS011;66443;49.122;8.346;2023-12-29T11:15:10;1.40;;;1.30;;
77384;SDS011;66443;49.122;8.346;2023-12-29T11:17:38;1.10;;;1.00;;
77384;SDS011;66443;49.122;8.346;2023-12-29T11:20:04;1.40;;;1.30;;
77384;SDS011;66443;49.122;8.346;2023-12-29T11:22:30;1.10;;;1.10;;
77384;SDS011;66443;49.122;8.346;2023-12-29T11:24:59;1.13;;;1.07;;
77384;SDS011;66443;49.122;8.346;2023-12-29T11:27:25;1.40;;;1.30;;
77384;SDS011;66443;49.122;8.346;2023-12-29T11:29:51;1.70;;;1.60;;
77384;SDS011;66443;49.122;8.346;2023-12-29T11:32:18;1.57;;;1.47;;
77384;SDS011;66443;49.122;8.346;2023-12-29T11:34:50;1.10;;;1.10;;
77384;SDS011;66443;49.122;8.346;2023-12-29T11:42:27;1.48;;;1.30;;
77384;SDS011;66443;49.122;8.346;2023-12-29T11:44:54;1.40;;;1.30;;
77384;SDS011;66443;49.122;8.346;2023-12-29T11:47:35;1.30;;;1.20;;
77384;SDS011;66443;49.122;8.346;2023-12-29T11:50:02;2.20;;;1.50;;
77384;SDS011;66443;49.122;8.346;2023-12-29T11:52:34;2.03;;;1.40;;
77384;SDS011;66443;49.122;8.346;2023-12-29T11:55:12;1.77;;;1.50;;
77384;SDS011;66443;49.122;8.346;2023-12-29T11:57:38;1.57;;;1.47;;
77384;SDS011;66443;49.122;8.346;2023-12-29T12:00:05;1.53;;;1.43;;
77384;SDS011;66443;49.122;8.346;2023-12-29T12:02:30;1.40;;;1.30;;
77384;SDS011;66443;49.122;8.346;2023-12-29T12:04:56;1.70;;;1.60;;
77384;SDS011;66443;49.122;8.346;2023-12-29T12:09:47;1.33;;;1.23;;
77384;SDS011;66443;49.122;8.346;2023-12-29T12:12:14;1.30;;;1.20;;
77384;SDS011;66443;49.122;8.346;2023-12-29T12:14:52;1.50;;;1.27;;
77384;SDS011;66443;49.122;8.346;2023-12-29T12:17:33;1.43;;;1.33;;
77384;SDS011;66443;49.122;8.346;2023-12-29T12:22:29;1.57;;;1.47;;
77384;SDS011;66443;49.122;8.346;2023-12-29T12:24:55;1.20;;;1.20;;
77384;SDS011;66443;49.122;8.346;2023-12-29T12:27:20;1.30;;;1.30;;
77384;SDS011;66443;49.122;8.346;2023-12-29T12:29:50;1.50;;;1.40;;
77384;SDS011;66443;49.122;8.346;2023-12-29T12:32:16;1.23;;;1.20;;
77384;SDS011;66443;49.122;8.346;2023-12-29T12:34:41;1.40;;;1.30;;
77384;SDS011;66443;49.122;8.346;2023-12-29T12:37:07;1.73;;;1.40;;
77384;SDS011;66443;49.122;8.346;2023-12-29T12:39:39;1.30;;;1.10;;
77384;SDS011;66443;49.122;8.346;2023-12-29T12:42:05;2.60;;;1.43;;
77384;SDS011;66443;49.122;8.346;2023-12-29T12:44:30;3.10;;;1.43;;
77384;SDS011;66443;49.122;8.346;2023-12-29T12:46:56;1.20;;;1.10;;
77384;SDS011;66443;49.122;8.346;2023-12-29T12:49:22;1.50;;;1.40;;
77384;SDS011;66443;49.122;8.346;2023-12-29T12:51:47;1.57;;;1.47;;
77384;SDS011;66443;49.122;8.346;2023-12-29T12:54:13;1.43;;;1.33;;
77384;SDS011;66443;49.122;8.346;2023-12-29T12:56:40;1.10;;;1.10;;
77384;SDS011;66443;49.122;8.346;2023-12-29T12:59:06;1.83;;;1.37;;
77384;SDS011;66443;49.122;8.346;2023-12-29T13:01:34;1.87;;;1.37;;
77384;SDS011;66443;49.122;8.346;2023-12-29T13:04:00;1.57;;;1.47;;
77384;SDS011;66443;49.122;8.346;2023-12-29T13:06:25;2.33;;;1.20;;
77384;SDS011;66443;49.122;8.346;2023-12-29T13:08:51;1.27;;;1.10;;
77384;SDS011;66443;49.122;8.346;2023-12-29T13:11:20;1.50;;;1.40;;
77384;SDS011;66443;49.122;8.346;2023-12-29T13:13:50;1.40;;;1.30;;
77384;SDS011;66443;49.122;8.346;2023-12-29T13:16:15;2.27;;;1.60;;
77384;SDS011;66443;49.122;8.346;2023-12-29T13:18:41;1.40;;;1.30;;
77384;SDS011;66443;49.122;8.346;2023-12-29T13:21:06;1.10;;;1.10;;
77384;SDS011;66443;49.122;8.346;2023-12-29T13:23:31;1.37;;;1.27;;
77384;SDS011;66443;49.122;8.346;2023-12-29T13:25:57;1.50;;;1.40;;
77384;SDS011;66443;49.122;8.346;2023-12-29T13:28:24;2.97;;;1.60;;
77384;SDS011;66443;49.122;8.346;2023-12-29T13:30:50;1.63;;;1.13;;
77384;SDS011;66443;49.122;8.346;2023-12-29T13:33:17;1.10;;;1.00;;
77384;SDS011;66443;49.122;8.346;2023-12-29T13:35:49;1.40;;;1.30;;
77384;SDS011;66443;49.122;8.346;2023-12-29T13:38:21;1.10;;;1.07;;
77384;SDS011;66443;49.122;8.346;2023-12-29T13:40:56;2.07;;;1.30;;
77384;SDS011;66443;49.122;8.346;2023-12-29T13:43:22;2.10;;;1.90;;
77384;SDS011;66443;49.122;8.346;2023-12-29T13:45:47;1.33;;;1.10;;
77384;SDS011;66443;49.122;8.346;2023-12-29T13:48:13;1.63;;;1.17;;
77384;SDS011;66443;49.122;8.346;2023-12-29T13:50:39;1.43;;;1.33;;
77384;SDS011;66443;49.122;8.346;2023-12-29T13:53:06;1.67;;;1.27;;
77384;SDS011;66443;49.122;8.346;2023-12-29T13:55:31;1.30;;;1.20;;
77384;SDS011;66443;49.122;8.346;2023-12-29T13:57:56;1.20;;;1.20;;
77384;SDS011;66443;49.122;8.346;2023-12-29T14:00:22;1.53;;;1.30;;
77384;SDS011;66443;49.122;8.346;2023-12-29T14:02:50;1.50;;;1.40;;
77384;SDS011;66443;49.122;8.346;2023-12-29T14:07:55;1.70;;;1.60;;
77384;SDS011;66443;49.122;8.346;2023-12-29T14:10:23;2.67;;;1.90;;
77384;SDS011;66443;49.122;8.346;2023-12-29T14:12:53;2.17;;;1.90;;
77384;SDS011;66443;49.122;8.346;2023-12-29T14:15:18;1.43;;;1.33;;
77384;SDS011;66443;49.122;8.346;2023-12-29T14:17:43;1.37;;;1.27;;
77384;SDS011;66443;49.122;8.346;2023-12-29T14:20:09;1.77;;;1.43;;
77384;SDS011;66443;49.122;8.346;2023-12-29T14:22:34;1.60;;;1.50;;
77384;SDS011;66443;49.122;8.346;2023-12-29T14:25:00;2.90;;;1.60;;
77384;SDS011;66443;49.122;8.346;2023-12-29T14:27:26;1.60;;;1.50;;
77384;SDS011;66443;49.122;8.346;2023-12-29T14:29:52;1.20;;;1.10;;
77384;SDS011;66443;49.122;8.346;2023-12-29T14:32:17;1.20;;;1.10;;
77384;SDS011;66443;49.122;8.346;2023-12-29T14:34:42;1.37;;;1.20;;
77384;SDS011;66443;49.122;8.346;2023-12-29T14:37:07;2.37;;;1.30;;
77384;SDS011;66443;49.122;8.346;2023-12-29T14:39:32;2.13;;;1.37;;
77384;SDS011;66443;49.122;8.346;2023-12-29T14:42:00;1.50;;;1.40;;
77384;SDS011;66443;49.122;8.346;2023-12-29T14:44:25;1.13;;;1.07;;
77384;SDS011;66443;49.122;8.346;2023-12-29T14:46:50;1.43;;;1.33;;
77384;SDS011;66443;49.122;8.346;2023-12-29T14:49:16;1.60;;;1.50;;
77384;SDS011;66443;49.122;8.346;2023-12-29T14:51:41;2.07;;;1.80;;
77384;SDS011;66443;49.122;8.346;2023-12-29T14:54:06;1.60;;;1.50;;
77384;SDS011;66443;49.122;8.346;2023-12-29T14:56:31;2.00;;;1.40;;
77384;SDS011;66443;49.122;8.346;2023-12-29T14:58:57;1.30;;;1.20;;